sensor_id;sensor_type;location;lat;lon;timestamp;P1;durP1;ratioP1;P2;durP2;ratioP2
16308;SDS011;8263;48.880;9.276;2024-01-30T00:01:05;182.55;;;167.55;;
16308;SDS011;8263;48.880;9.276;2024-01-30T00:03:32;183.48;;;168.35;;
16308;SDS011;8263;48.880;9.276;2024-01-30T00:06:00;185.30;;;169.98;;
16308;SDS011;8263;48.880;9.276;2024-01-30T00:08:28;182.18;;;167.20;;
16308;SDS011;8263;48.880;9.276;2024-01-30T00:10:54;185.13;;;169.60;;
16308;SDS011;8263;48.880;9.276;2024-01-30T00:13:21;185.65;;;170.30;;
16308;SDS011;8263;48.880;9.276;2024-01-30T00:15:47;185.82;;;170.52;;
16308;SDS011;8263;48.880;9.276;2024-01-30T00:18:14;185.13;;;169.63;;
16308;SDS011;8263;48.880;9.276;2024-01-30T00:20:41;185.60;;;170.32;;
16308;SDS011;8263;48.880;9.276;2024-01-30T00:23:09;187.20;;;171.75;;
16308;SDS011;8263;48.880;9.276;2024-01-30T00:25:35;188.00;;;172.02;;
16308;SDS011;8263;48.880;9.276;2024-01-30T00:28:02;185.45;;;170.18;;
16308;SDS011;8263;48.880;9.276;2024-01-30T00:30:28;185.10;;;169.90;;
16308;SDS011;8263;48.880;9.276;2024-01-30T00:32:55;185.82;;;170.55;;
16308;SDS011;8263;48.880;9.276;2024-01-30T00:35:22;184.57;;;169.32;;
16308;SDS011;8263;48.880;9.276;2024-01-30T00:37:48;182.88;;;167.82;;
16308;SDS011;8263;48.880;9.276;2024-01-30T00:40:16;187.07;;;171.63;;
16308;SDS011;8263;48.880;9.276;2024-01-30T00:42:43;184.73;;;169.30;;
16308;SDS011;8263;48.880;9.276;2024-01-30T00:45:11;184.32;;;169.18;;
16308;SDS011;8263;48.880;9.276;2024-01-30T00:47:38;186.68;;;171.00;;
16308;SDS011;8263;48.880;9.276;2024-01-30T00:50:05;184.38;;;168.88;;
16308;SDS011;8263;48.880;9.276;2024-01-30T00:52:31;185.73;;;170.45;;
16308;SDS011;8263;48.880;9.276;2024-01-30T00:54:58;186.75;;;171.40;;
16308;SDS011;8263;48.880;9.276;2024-01-30T00:57:26;185.38;;;170.10;;
16308;SDS011;8263;48.880;9.276;2024-01-30T00:59:53;185.55;;;170.20;;
16308;SDS011;8263;48.880;9.276;2024-01-30T01:02:19;185.93;;;170.65;;
16308;SDS011;8263;48.880;9.276;2024-01-30T01:04:46;184.30;;;169.10;;
16308;SDS011;8263;48.880;9.276;2024-01-30T01:07:11;184.80;;;169.40;;
16308;SDS011;8263;48.880;9.276;2024-01-30T01:09:38;184.30;;;168.63;;
16308;SDS011;8263;48.880;9.276;2024-01-30T01:12:04;187.60;;;172.10;;
16308;SDS011;8263;48.880;9.276;2024-01-30T01:14:32;185.55;;;170.30;;
16308;SDS011;8263;48.880;9.276;2024-01-30T01:16:59;182.68;;;167.68;;
16308;SDS011;8263;48.880;9.276;2024-01-30T01:19:26;185.45;;;170.15;;
16308;SDS011;8263;48.880;9.276;2024-01-30T01:21:52;183.07;;;167.95;;
16308;SDS011;8263;48.880;9.276;2024-01-30T01:24:19;187.70;;;172.13;;
16308;SDS011;8263;48.880;9.276;2024-01-30T01:26:45;189.45;;;173.75;;
16308;SDS011;8263;48.880;9.276;2024-01-30T01:29:12;186.98;;;171.05;;
16308;SDS011;8263;48.880;9.276;2024-01-30T01:31:39;186.98;;;171.57;;
16308;SDS011;8263;48.880;9.276;2024-01-30T01:34:08;184.70;;;169.45;;
16308;SDS011;8263;48.880;9.276;2024-01-30T01:36:35;187.88;;;172.40;;
16308;SDS011;8263;48.880;9.276;2024-01-30T01:39:01;186.15;;;170.75;;
16308;SDS011;8263;48.880;9.276;2024-01-30T01:41:29;186.38;;;170.77;;
16308;SDS011;8263;48.880;9.276;2024-01-30T01:43:56;184.38;;;169.07;;
16308;SDS011;8263;48.880;9.276;2024-01-30T01:46:22;185.07;;;169.63;;
16308;SDS011;8263;48.880;9.276;2024-01-30T01:48:50;185.50;;;169.85;;
16308;SDS011;8263;48.880;9.276;2024-01-30T01:51:17;185.50;;;170.10;;
16308;SDS011;8263;48.880;9.276;2024-01-30T01:53:43;184.73;;;169.45;;
16308;SDS011;8263;48.880;9.276;2024-01-30T01:56:10;187.95;;;172.45;;
16308;SDS011;8263;48.880;9.276;2024-01-30T01:58:36;190.70;;;174.70;;
16308;SDS011;8263;48.880;9.276;2024-01-30T02:01:03;187.20;;;171.80;;
16308;SDS011;8263;48.880;9.276;2024-01-30T02:03:30;183.88;;;168.75;;
16308;SDS011;8263;48.880;9.276;2024-01-30T02:05:58;186.85;;;171.40;;
16308;SDS011;8263;48.880;9.276;2024-01-30T02:08:25;185.55;;;170.25;;
16308;SDS011;8263;48.880;9.276;2024-01-30T02:10:52;185.60;;;170.35;;
16308;SDS011;8263;48.880;9.276;2024-01-30T02:13:18;188.05;;;172.45;;
16308;SDS011;8263;48.880;9.276;2024-01-30T02:15:48;187.57;;;171.98;;
16308;SDS011;8263;48.880;9.276;2024-01-30T02:18:14;185.75;;;170.30;;
16308;SDS011;8263;48.880;9.276;2024-01-30T02:20:41;185.32;;;170.02;;
16308;SDS011;8263;48.880;9.276;2024-01-30T02:23:09;184.80;;;169.57;;
16308;SDS011;8263;48.880;9.276;2024-01-30T02:25:38;188.00;;;172.45;;
16308;SDS011;8263;48.880;9.276;2024-01-30T02:28:09;186.70;;;171.30;;
16308;SDS011;8263;48.880;9.276;2024-01-30T02:30:35;187.32;;;171.90;;
16308;SDS011;8263;48.880;9.276;2024-01-30T02:33:02;184.30;;;169.07;;
16308;SDS011;8263;48.880;9.276;2024-01-30T02:35:29;186.80;;;171.45;;
16308;SDS011;8263;48.880;9.276;2024-01-30T02:37:55;185.30;;;170.07;;
16308;SDS011;8263;48.880;9.276;2024-01-30T02:40:23;188.65;;;173.05;;
16308;SDS011;8263;48.880;9.276;2024-01-30T02:42:49;188.32;;;172.82;;
16308;SDS011;8263;48.880;9.276;2024-01-30T02:45:16;183.60;;;168.43;;
16308;SDS011;8263;48.880;9.276;2024-01-30T02:47:43;186.18;;;170.77;;
16308;SDS011;8263;48.880;9.276;2024-01-30T02:50:09;187.98;;;172.50;;
16308;SDS011;8263;48.880;9.276;2024-01-30T02:52:36;187.88;;;172.43;;
16308;SDS011;8263;48.880;9.276;2024-01-30T02:55:03;188.40;;;172.82;;
16308;SDS011;8263;48.880;9.276;2024-01-30T02:57:31;186.18;;;170.88;;
16308;SDS011;8263;48.880;9.276;2024-01-30T02:59:57;185.32;;;169.68;;
16308;SDS011;8263;48.880;9.276;2024-01-30T03:02:24;186.50;;;170.70;;
16308;SDS011;8263;48.880;9.276;2024-01-30T03:04:51;189.95;;;174.25;;
16308;SDS011;8263;48.880;9.276;2024-01-30T03:07:17;188.73;;;173.02;;
16308;SDS011;8263;48.880;9.276;2024-01-30T03:09:44;187.23;;;171.73;;
16308;SDS011;8263;48.880;9.276;2024-01-30T03:12:11;187.43;;;171.98;;
16308;SDS011;8263;48.880;9.276;2024-01-30T03:14:38;188.43;;;172.93;;
16308;SDS011;8263;48.880;9.276;2024-01-30T03:17:05;188.70;;;173.00;;
16308;SDS011;8263;48.880;9.276;2024-01-30T03:19:31;190.25;;;174.55;;
16308;SDS011;8263;48.880;9.276;2024-01-30T03:21:58;186.32;;;170.93;;
16308;SDS011;8263;48.880;9.276;2024-01-30T03:24:24;188.55;;;173.00;;
16308;SDS011;8263;48.880;9.276;2024-01-30T03:26:51;186.60;;;171.18;;
16308;SDS011;8263;48.880;9.276;2024-01-30T03:29:17;188.40;;;172.85;;
16308;SDS011;8263;48.880;9.276;2024-01-30T03:31:45;187.25;;;171.90;;
16308;SDS011;8263;48.880;9.276;2024-01-30T03:34:11;187.50;;;172.05;;
16308;SDS011;8263;48.880;9.276;2024-01-30T03:36:38;188.95;;;173.00;;
16308;SDS011;8263;48.880;9.276;2024-01-30T03:39:04;185.55;;;170.30;;
16308;SDS011;8263;48.880;9.276;2024-01-30T03:41:31;189.93;;;174.20;;
16308;SDS011;8263;48.880;9.276;2024-01-30T03:43:57;191.25;;;175.48;;
16308;SDS011;8263;48.880;9.276;2024-01-30T03:46:24;186.23;;;170.88;;
16308;SDS011;8263;48.880;9.276;2024-01-30T03:48:52;187.23;;;171.73;;
16308;SDS011;8263;48.880;9.276;2024-01-30T03:51:19;186.57;;;171.20;;
16308;SDS011;8263;48.880;9.276;2024-01-30T03:53:46;189.57;;;173.95;;
16308;SDS011;8263;48.880;9.276;2024-01-30T03:56:13;189.98;;;174.23;;
16308;SDS011;8263;48.880;9.276;2024-01-30T03:58:39;185.07;;;169.88;;
16308;SDS011;8263;48.880;9.276;2024-01-30T04:01:06;188.80;;;173.25;;
16308;SDS011;8263;48.880;9.276;2024-01-30T04:03:32;186.88;;;171.50;;
16308;SDS011;8263;48.880;9.276;2024-01-30T04:06:00;188.70;;;173.15;;
16308;SDS011;8263;48.880;9.276;2024-01-30T04:08:27;188.30;;;172.73;;
16308;SDS011;8263;48.880;9.276;2024-01-30T04:10:53;186.43;;;171.07;;
16308;SDS011;8263;48.880;9.276;2024-01-30T04:13:20;188.15;;;172.68;;
16308;SDS011;8263;48.880;9.276;2024-01-30T04:15:46;189.00;;;173.48;;
16308;SDS011;8263;48.880;9.276;2024-01-30T04:18:13;189.50;;;173.88;;
16308;SDS011;8263;48.880;9.276;2024-01-30T04:20:39;189.30;;;173.55;;
16308;SDS011;8263;48.880;9.276;2024-01-30T04:23:07;189.00;;;173.40;;
16308;SDS011;8263;48.880;9.276;2024-01-30T04:25:34;190.82;;;175.02;;
16308;SDS011;8263;48.880;9.276;2024-01-30T04:28:00;187.85;;;172.32;;
16308;SDS011;8263;48.880;9.276;2024-01-30T04:30:27;188.77;;;173.23;;
16308;SDS011;8263;48.880;9.276;2024-01-30T04:32:53;191.02;;;175.13;;
16308;SDS011;8263;48.880;9.276;2024-01-30T04:35:20;190.07;;;174.30;;
16308;SDS011;8263;48.880;9.276;2024-01-30T04:37:49;189.57;;;173.82;;
16308;SDS011;8263;48.880;9.276;2024-01-30T04:40:17;188.05;;;172.60;;
16308;SDS011;8263;48.880;9.276;2024-01-30T04:42:44;190.05;;;174.40;;
16308;SDS011;8263;48.880;9.276;2024-01-30T04:45:10;188.02;;;172.52;;
16308;SDS011;8263;48.880;9.276;2024-01-30T04:47:37;190.95;;;175.20;;
16308;SDS011;8263;48.880;9.276;2024-01-30T04:50:04;190.05;;;174.40;;
16308;SDS011;8263;48.880;9.276;2024-01-30T04:52:30;189.68;;;174.00;;
16308;SDS011;8263;48.880;9.276;2024-01-30T04:54:57;190.48;;;174.55;;
16308;SDS011;8263;48.880;9.276;2024-01-30T04:57:25;188.93;;;173.32;;
16308;SDS011;8263;48.880;9.276;2024-01-30T04:59:51;190.60;;;174.88;;
16308;SDS011;8263;48.880;9.276;2024-01-30T05:02:18;189.43;;;173.75;;
16308;SDS011;8263;48.880;9.276;2024-01-30T05:04:44;185.80;;;170.30;;
16308;SDS011;8263;48.880;9.276;2024-01-30T05:07:11;189.60;;;173.65;;
16308;SDS011;8263;48.880;9.276;2024-01-30T05:09:37;187.10;;;171.73;;
16308;SDS011;8263;48.880;9.276;2024-01-30T05:12:04;188.13;;;172.55;;
16308;SDS011;8263;48.880;9.276;2024-01-30T05:14:32;188.70;;;173.02;;
16308;SDS011;8263;48.880;9.276;2024-01-30T05:16:58;190.25;;;174.52;;
16308;SDS011;8263;48.880;9.276;2024-01-30T05:19:25;187.77;;;172.20;;
16308;SDS011;8263;48.880;9.276;2024-01-30T05:21:52;188.60;;;173.05;;
16308;SDS011;8263;48.880;9.276;2024-01-30T05:24:18;190.02;;;174.32;;
16308;SDS011;8263;48.880;9.276;2024-01-30T05:26:45;191.45;;;174.95;;
16308;SDS011;8263;48.880;9.276;2024-01-30T05:29:12;187.40;;;171.98;;
16308;SDS011;8263;48.880;9.276;2024-01-30T05:31:40;191.60;;;175.57;;
16308;SDS011;8263;48.880;9.276;2024-01-30T05:34:07;190.30;;;174.57;;
16308;SDS011;8263;48.880;9.276;2024-01-30T05:36:34;188.30;;;172.75;;
16308;SDS011;8263;48.880;9.276;2024-01-30T05:39:00;189.45;;;173.82;;
16308;SDS011;8263;48.880;9.276;2024-01-30T05:41:27;187.77;;;172.30;;
16308;SDS011;8263;48.880;9.276;2024-01-30T05:43:54;188.60;;;172.90;;
16308;SDS011;8263;48.880;9.276;2024-01-30T05:46:20;190.57;;;174.43;;
16308;SDS011;8263;48.880;9.276;2024-01-30T05:48:49;190.48;;;174.70;;
16308;SDS011;8263;48.880;9.276;2024-01-30T05:51:16;191.50;;;175.68;;
16308;SDS011;8263;48.880;9.276;2024-01-30T05:53:42;192.52;;;176.45;;
16308;SDS011;8263;48.880;9.276;2024-01-30T05:56:09;189.02;;;173.43;;
16308;SDS011;8263;48.880;9.276;2024-01-30T05:58:35;191.45;;;175.57;;
16308;SDS011;8263;48.880;9.276;2024-01-30T06:01:02;190.23;;;174.52;;
16308;SDS011;8263;48.880;9.276;2024-01-30T06:03:29;191.82;;;175.95;;
16308;SDS011;8263;48.880;9.276;2024-01-30T06:05:57;187.50;;;172.00;;
16308;SDS011;8263;48.880;9.276;2024-01-30T06:08:23;188.70;;;172.82;;
16308;SDS011;8263;48.880;9.276;2024-01-30T06:10:50;188.45;;;172.73;;
16308;SDS011;8263;48.880;9.276;2024-01-30T06:13:17;193.15;;;177.02;;
16308;SDS011;8263;48.880;9.276;2024-01-30T06:15:43;190.25;;;174.57;;
16308;SDS011;8263;48.880;9.276;2024-01-30T06:18:10;190.20;;;174.45;;
16308;SDS011;8263;48.880;9.276;2024-01-30T06:20:36;191.40;;;175.60;;
16308;SDS011;8263;48.880;9.276;2024-01-30T06:23:04;192.05;;;176.18;;
16308;SDS011;8263;48.880;9.276;2024-01-30T06:25:31;189.70;;;174.07;;
16308;SDS011;8263;48.880;9.276;2024-01-30T06:27:57;189.00;;;173.27;;
16308;SDS011;8263;48.880;9.276;2024-01-30T06:30:26;192.63;;;176.73;;
16308;SDS011;8263;48.880;9.276;2024-01-30T06:32:53;189.55;;;173.95;;
16308;SDS011;8263;48.880;9.276;2024-01-30T06:35:19;192.65;;;176.68;;
16308;SDS011;8263;48.880;9.276;2024-01-30T06:37:47;190.20;;;174.48;;
16308;SDS011;8263;48.880;9.276;2024-01-30T06:40:15;189.95;;;174.30;;
16308;SDS011;8263;48.880;9.276;2024-01-30T06:42:41;192.02;;;176.15;;
16308;SDS011;8263;48.880;9.276;2024-01-30T06:45:08;192.95;;;177.00;;
16308;SDS011;8263;48.880;9.276;2024-01-30T06:47:35;190.75;;;175.02;;
16308;SDS011;8263;48.880;9.276;2024-01-30T06:50:01;190.23;;;174.50;;
16308;SDS011;8263;48.880;9.276;2024-01-30T06:52:28;189.85;;;174.20;;
16308;SDS011;8263;48.880;9.276;2024-01-30T06:54:55;188.98;;;173.45;;
16308;SDS011;8263;48.880;9.276;2024-01-30T06:57:23;189.90;;;174.25;;
16308;SDS011;8263;48.880;9.276;2024-01-30T06:59:52;192.48;;;176.57;;
16308;SDS011;8263;48.880;9.276;2024-01-30T07:02:20;191.73;;;175.93;;
16308;SDS011;8263;48.880;9.276;2024-01-30T07:04:46;190.18;;;174.48;;
16308;SDS011;8263;48.880;9.276;2024-01-30T07:07:13;189.37;;;173.40;;
16308;SDS011;8263;48.880;9.276;2024-01-30T07:09:40;191.85;;;175.82;;
16308;SDS011;8263;48.880;9.276;2024-01-30T07:12:06;189.57;;;173.82;;
16308;SDS011;8263;48.880;9.276;2024-01-30T07:14:36;188.35;;;172.63;;
16308;SDS011;8263;48.880;9.276;2024-01-30T07:17:03;189.52;;;173.93;;
16308;SDS011;8263;48.880;9.276;2024-01-30T07:19:29;190.75;;;174.98;;
16308;SDS011;8263;48.880;9.276;2024-01-30T07:21:55;188.52;;;172.77;;
16308;SDS011;8263;48.880;9.276;2024-01-30T07:24:22;189.32;;;173.35;;
16308;SDS011;8263;48.880;9.276;2024-01-30T07:26:49;189.55;;;173.95;;
16308;SDS011;8263;48.880;9.276;2024-01-30T07:29:16;191.13;;;175.27;;
16308;SDS011;8263;48.880;9.276;2024-01-30T07:31:44;190.05;;;174.35;;
16308;SDS011;8263;48.880;9.276;2024-01-30T07:34:11;191.88;;;175.98;;
16308;SDS011;8263;48.880;9.276;2024-01-30T07:36:37;189.02;;;173.48;;
16308;SDS011;8263;48.880;9.276;2024-01-30T07:39:04;191.38;;;175.52;;
16308;SDS011;8263;48.880;9.276;2024-01-30T07:41:30;190.02;;;174.32;;
16308;SDS011;8263;48.880;9.276;2024-01-30T07:43:57;192.20;;;176.32;;
16308;SDS011;8263;48.880;9.276;2024-01-30T07:46:24;187.77;;;172.30;;
16308;SDS011;8263;48.880;9.276;2024-01-30T07:48:52;187.27;;;171.82;;
16308;SDS011;8263;48.880;9.276;2024-01-30T07:51:18;191.60;;;175.63;;
16308;SDS011;8263;48.880;9.276;2024-01-30T07:53:45;189.88;;;174.18;;
16308;SDS011;8263;48.880;9.276;2024-01-30T07:56:11;190.88;;;175.07;;
16308;SDS011;8263;48.880;9.276;2024-01-30T07:58:37;191.10;;;175.20;;
16308;SDS011;8263;48.880;9.276;2024-01-30T08:01:04;188.13;;;172.52;;
16308;SDS011;8263;48.880;9.276;2024-01-30T08:03:30;190.45;;;174.68;;
16308;SDS011;8263;48.880;9.276;2024-01-30T08:05:58;189.75;;;173.80;;
16308;SDS011;8263;48.880;9.276;2024-01-30T08:08:25;191.43;;;174.55;;
16308;SDS011;8263;48.880;9.276;2024-01-30T08:10:52;191.88;;;175.77;;
16308;SDS011;8263;48.880;9.276;2024-01-30T08:13:18;188.90;;;173.32;;
16308;SDS011;8263;48.880;9.276;2024-01-30T08:15:45;189.85;;;174.10;;
16308;SDS011;8263;48.880;9.276;2024-01-30T08:18:11;188.90;;;173.35;;
16308;SDS011;8263;48.880;9.276;2024-01-30T08:20:38;191.02;;;175.25;;
16308;SDS011;8263;48.880;9.276;2024-01-30T08:23:06;190.10;;;174.25;;
16308;SDS011;8263;48.880;9.276;2024-01-30T08:25:32;189.15;;;173.55;;
16308;SDS011;8263;48.880;9.276;2024-01-30T08:27:59;192.90;;;176.88;;
16308;SDS011;8263;48.880;9.276;2024-01-30T08:30:25;192.60;;;176.60;;
16308;SDS011;8263;48.880;9.276;2024-01-30T08:32:52;191.60;;;175.70;;
16308;SDS011;8263;48.880;9.276;2024-01-30T08:35:18;191.77;;;175.75;;
16308;SDS011;8263;48.880;9.276;2024-01-30T08:37:45;192.25;;;176.27;;
16308;SDS011;8263;48.880;9.276;2024-01-30T08:40:13;188.38;;;172.80;;
16308;SDS011;8263;48.880;9.276;2024-01-30T08:42:39;192.32;;;176.40;;
16308;SDS011;8263;48.880;9.276;2024-01-30T08:45:06;188.98;;;173.25;;
16308;SDS011;8263;48.880;9.276;2024-01-30T08:47:34;188.85;;;173.20;;
16308;SDS011;8263;48.880;9.276;2024-01-30T08:50:00;191.10;;;175.25;;
16308;SDS011;8263;48.880;9.276;2024-01-30T08:52:30;188.32;;;172.35;;
16308;SDS011;8263;48.880;9.276;2024-01-30T08:54:56;191.88;;;175.93;;
16308;SDS011;8263;48.880;9.276;2024-01-30T08:57:24;190.48;;;174.60;;
16308;SDS011;8263;48.880;9.276;2024-01-30T08:59:53;192.38;;;176.43;;
16308;SDS011;8263;48.880;9.276;2024-01-30T09:02:19;190.38;;;174.63;;
16308;SDS011;8263;48.880;9.276;2024-01-30T09:04:46;191.45;;;175.55;;
16308;SDS011;8263;48.880;9.276;2024-01-30T09:07:12;193.02;;;176.98;;
16308;SDS011;8263;48.880;9.276;2024-01-30T09:09:39;190.15;;;174.05;;
16308;SDS011;8263;48.880;9.276;2024-01-30T09:12:06;188.32;;;172.80;;
16308;SDS011;8263;48.880;9.276;2024-01-30T09:14:36;191.63;;;175.75;;
16308;SDS011;8263;48.880;9.276;2024-01-30T09:17:03;189.13;;;173.38;;
16308;SDS011;8263;48.880;9.276;2024-01-30T09:19:30;189.52;;;173.82;;
16308;SDS011;8263;48.880;9.276;2024-01-30T09:21:56;190.27;;;174.57;;
16308;SDS011;8263;48.880;9.276;2024-01-30T09:24:23;188.93;;;173.38;;
16308;SDS011;8263;48.880;9.276;2024-01-30T09:26:49;186.88;;;171.43;;
16308;SDS011;8263;48.880;9.276;2024-01-30T09:29:15;190.55;;;174.73;;
16308;SDS011;8263;48.880;9.276;2024-01-30T09:31:44;189.85;;;174.02;;
16308;SDS011;8263;48.880;9.276;2024-01-30T09:34:11;187.82;;;172.23;;
16308;SDS011;8263;48.880;9.276;2024-01-30T09:36:37;189.05;;;173.50;;
16308;SDS011;8263;48.880;9.276;2024-01-30T09:39:04;189.30;;;173.70;;
16308;SDS011;8263;48.880;9.276;2024-01-30T09:41:31;188.82;;;173.07;;
16308;SDS011;8263;48.880;9.276;2024-01-30T09:43:59;188.98;;;173.40;;
16308;SDS011;8263;48.880;9.276;2024-01-30T09:46:27;188.75;;;173.18;;
16308;SDS011;8263;48.880;9.276;2024-01-30T09:48:56;188.25;;;172.77;;
16308;SDS011;8263;48.880;9.276;2024-01-30T09:51:23;188.73;;;173.15;;
16308;SDS011;8263;48.880;9.276;2024-01-30T09:53:50;188.73;;;173.13;;
16308;SDS011;8263;48.880;9.276;2024-01-30T09:56:17;187.95;;;172.35;;
16308;SDS011;8263;48.880;9.276;2024-01-30T09:58:43;188.07;;;172.57;;
16308;SDS011;8263;48.880;9.276;2024-01-30T10:01:10;189.65;;;173.98;;
16308;SDS011;8263;48.880;9.276;2024-01-30T10:03:36;189.40;;;173.63;;
16308;SDS011;8263;48.880;9.276;2024-01-30T10:06:05;184.65;;;169.30;;
16308;SDS011;8263;48.880;9.276;2024-01-30T10:08:31;189.30;;;173.40;;
16308;SDS011;8263;48.880;9.276;2024-01-30T10:10:58;187.75;;;172.30;;
16308;SDS011;8263;48.880;9.276;2024-01-30T10:13:25;185.98;;;170.60;;
16308;SDS011;8263;48.880;9.276;2024-01-30T10:15:52;188.35;;;172.75;;
16308;SDS011;8263;48.880;9.276;2024-01-30T10:18:20;186.27;;;170.88;;
16308;SDS011;8263;48.880;9.276;2024-01-30T10:20:46;187.25;;;171.85;;
16308;SDS011;8263;48.880;9.276;2024-01-30T10:23:14;186.88;;;171.50;;
16308;SDS011;8263;48.880;9.276;2024-01-30T10:25:40;185.60;;;170.38;;
16308;SDS011;8263;48.880;9.276;2024-01-30T10:28:07;186.75;;;171.30;;
16308;SDS011;8263;48.880;9.276;2024-01-30T10:30:33;185.75;;;170.48;;
16308;SDS011;8263;48.880;9.276;2024-01-30T10:33:00;182.77;;;167.80;;
16308;SDS011;8263;48.880;9.276;2024-01-30T10:35:27;184.63;;;169.32;;
16308;SDS011;8263;48.880;9.276;2024-01-30T10:37:53;187.27;;;171.38;;
16308;SDS011;8263;48.880;9.276;2024-01-30T10:40:24;186.07;;;170.55;;
16308;SDS011;8263;48.880;9.276;2024-01-30T10:42:53;187.95;;;172.40;;
16308;SDS011;8263;48.880;9.276;2024-01-30T10:45:21;185.73;;;170.48;;
16308;SDS011;8263;48.880;9.276;2024-01-30T10:47:48;183.88;;;168.77;;
16308;SDS011;8263;48.880;9.276;2024-01-30T10:50:15;186.98;;;171.27;;
16308;SDS011;8263;48.880;9.276;2024-01-30T10:52:41;184.68;;;169.48;;
16308;SDS011;8263;48.880;9.276;2024-01-30T10:55:09;187.98;;;172.30;;
16308;SDS011;8263;48.880;9.276;2024-01-30T10:57:37;182.80;;;167.68;;
16308;SDS011;8263;48.880;9.276;2024-01-30T11:00:04;185.70;;;170.43;;
16308;SDS011;8263;48.880;9.276;2024-01-30T11:02:35;182.43;;;167.38;;
16308;SDS011;8263;48.880;9.276;2024-01-30T11:05:04;185.65;;;170.25;;
16308;SDS011;8263;48.880;9.276;2024-01-30T11:07:30;184.85;;;169.55;;
16308;SDS011;8263;48.880;9.276;2024-01-30T11:09:59;185.63;;;169.85;;
16308;SDS011;8263;48.880;9.276;2024-01-30T11:12:27;183.05;;;167.85;;
16308;SDS011;8263;48.880;9.276;2024-01-30T11:15:08;182.82;;;167.75;;
16308;SDS011;8263;48.880;9.276;2024-01-30T11:17:41;184.63;;;169.43;;
16308;SDS011;8263;48.880;9.276;2024-01-30T11:20:09;183.68;;;168.50;;
16308;SDS011;8263;48.880;9.276;2024-01-30T11:22:36;183.75;;;168.65;;
16308;SDS011;8263;48.880;9.276;2024-01-30T11:25:03;181.30;;;166.35;;
16308;SDS011;8263;48.880;9.276;2024-01-30T11:27:30;183.20;;;168.07;;
16308;SDS011;8263;48.880;9.276;2024-01-30T11:30:00;181.90;;;166.93;;
16308;SDS011;8263;48.880;9.276;2024-01-30T11:32:28;181.20;;;166.40;;
16308;SDS011;8263;48.880;9.276;2024-01-30T11:34:55;180.02;;;165.35;;
16308;SDS011;8263;48.880;9.276;2024-01-30T11:37:21;183.05;;;167.88;;
16308;SDS011;8263;48.880;9.276;2024-01-30T11:39:51;179.77;;;164.85;;
16308;SDS011;8263;48.880;9.276;2024-01-30T11:42:17;180.50;;;165.63;;
16308;SDS011;8263;48.880;9.276;2024-01-30T11:44:46;179.50;;;164.82;;
16308;SDS011;8263;48.880;9.276;2024-01-30T11:47:13;178.85;;;163.95;;
16308;SDS011;8263;48.880;9.276;2024-01-30T11:49:42;177.38;;;162.82;;
16308;SDS011;8263;48.880;9.276;2024-01-30T11:52:09;182.50;;;167.52;;
16308;SDS011;8263;48.880;9.276;2024-01-30T11:54:36;182.18;;;167.23;;
16308;SDS011;8263;48.880;9.276;2024-01-30T11:57:05;181.27;;;166.45;;
16308;SDS011;8263;48.880;9.276;2024-01-30T11:59:32;179.32;;;164.57;;
16308;SDS011;8263;48.880;9.276;2024-01-30T12:01:58;178.95;;;164.15;;
16308;SDS011;8263;48.880;9.276;2024-01-30T12:04:27;179.10;;;164.38;;
16308;SDS011;8263;48.880;9.276;2024-01-30T12:06:55;181.98;;;167.10;;
16308;SDS011;8263;48.880;9.276;2024-01-30T12:09:22;180.88;;;165.75;;
16308;SDS011;8263;48.880;9.276;2024-01-30T12:11:48;178.98;;;164.20;;
16308;SDS011;8263;48.880;9.276;2024-01-30T12:14:15;182.13;;;167.27;;
16308;SDS011;8263;48.880;9.276;2024-01-30T12:16:42;178.65;;;164.15;;
16308;SDS011;8263;48.880;9.276;2024-01-30T12:19:09;179.73;;;165.02;;
16308;SDS011;8263;48.880;9.276;2024-01-30T12:21:37;180.60;;;165.90;;
16308;SDS011;8263;48.880;9.276;2024-01-30T12:24:06;181.15;;;166.23;;
16308;SDS011;8263;48.880;9.276;2024-01-30T12:26:33;178.40;;;163.85;;
16308;SDS011;8263;48.880;9.276;2024-01-30T12:29:00;176.98;;;162.50;;
16308;SDS011;8263;48.880;9.276;2024-01-30T12:31:27;177.07;;;162.48;;
16308;SDS011;8263;48.880;9.276;2024-01-30T12:33:53;178.57;;;164.00;;
16308;SDS011;8263;48.880;9.276;2024-01-30T12:36:20;179.30;;;164.63;;
16308;SDS011;8263;48.880;9.276;2024-01-30T12:38:47;178.43;;;163.77;;
16308;SDS011;8263;48.880;9.276;2024-01-30T12:41:15;178.95;;;164.05;;
16308;SDS011;8263;48.880;9.276;2024-01-30T12:43:41;178.52;;;163.60;;
16308;SDS011;8263;48.880;9.276;2024-01-30T12:46:08;177.25;;;162.68;;
16308;SDS011;8263;48.880;9.276;2024-01-30T12:48:35;176.73;;;162.13;;
16308;SDS011;8263;48.880;9.276;2024-01-30T12:51:01;180.60;;;165.88;;
16308;SDS011;8263;48.880;9.276;2024-01-30T12:53:28;175.43;;;161.23;;
16308;SDS011;8263;48.880;9.276;2024-01-30T12:55:54;178.30;;;163.70;;
16308;SDS011;8263;48.880;9.276;2024-01-30T12:58:22;176.00;;;161.65;;
16308;SDS011;8263;48.880;9.276;2024-01-30T13:00:49;177.75;;;162.85;;
16308;SDS011;8263;48.880;9.276;2024-01-30T13:03:16;178.02;;;163.10;;
16308;SDS011;8263;48.880;9.276;2024-01-30T13:05:42;176.38;;;162.05;;
16308;SDS011;8263;48.880;9.276;2024-01-30T13:08:09;177.75;;;163.20;;
16308;SDS011;8263;48.880;9.276;2024-01-30T13:10:35;176.82;;;161.90;;
16308;SDS011;8263;48.880;9.276;2024-01-30T13:13:02;177.07;;;162.63;;
16308;SDS011;8263;48.880;9.276;2024-01-30T13:15:30;175.60;;;161.23;;
16308;SDS011;8263;48.880;9.276;2024-01-30T13:17:57;176.82;;;162.43;;
16308;SDS011;8263;48.880;9.276;2024-01-30T13:20:23;174.07;;;159.88;;
16308;SDS011;8263;48.880;9.276;2024-01-30T13:22:50;174.75;;;160.40;;
16308;SDS011;8263;48.880;9.276;2024-01-30T13:25:17;175.32;;;161.07;;
16308;SDS011;8263;48.880;9.276;2024-01-30T13:27:43;173.85;;;159.75;;
16308;SDS011;8263;48.880;9.276;2024-01-30T13:30:10;175.45;;;161.20;;
16308;SDS011;8263;48.880;9.276;2024-01-30T13:32:38;175.27;;;161.07;;
16308;SDS011;8263;48.880;9.276;2024-01-30T13:35:06;175.32;;;161.07;;
16308;SDS011;8263;48.880;9.276;2024-01-30T13:37:33;173.65;;;159.52;;
16308;SDS011;8263;48.880;9.276;2024-01-30T13:39:59;176.45;;;161.77;;
16308;SDS011;8263;48.880;9.276;2024-01-30T13:42:25;172.82;;;158.68;;
16308;SDS011;8263;48.880;9.276;2024-01-30T13:44:52;174.55;;;160.18;;
16308;SDS011;8263;48.880;9.276;2024-01-30T13:47:18;175.50;;;160.98;;
16308;SDS011;8263;48.880;9.276;2024-01-30T13:49:47;174.82;;;160.63;;
16308;SDS011;8263;48.880;9.276;2024-01-30T13:52:14;174.05;;;159.98;;
16308;SDS011;8263;48.880;9.276;2024-01-30T13:54:40;174.07;;;159.93;;
16308;SDS011;8263;48.880;9.276;2024-01-30T13:57:07;174.18;;;160.07;;
16308;SDS011;8263;48.880;9.276;2024-01-30T13:59:34;174.07;;;159.90;;
16308;SDS011;8263;48.880;9.276;2024-01-30T14:02:01;172.75;;;158.73;;
16308;SDS011;8263;48.880;9.276;2024-01-30T14:04:28;171.88;;;157.98;;
16308;SDS011;8263;48.880;9.276;2024-01-30T14:06:56;171.40;;;157.65;;